Time;durP1;ratioP1;P1;durP2;ratioP2;P2;SDS_P1;SDS_P2;PMS_P1;PMS_P2;Temp;Humidity;BMP_temperature;BMP_pressure;BME280_temperature;BME280_humidity;BME280_pressure;Samples;Min_cycle;Max_cycle;Signal;HPM_P1;HPM_P2
2021/11/16 00:01:15;;;;;;;12.75;7.32;;;;;;;26.59;18.99;99261.41;5033192;28;20481;-84
2021/11/16 00:03:42;;;;;;;12.63;7.15;;;;;;;26.85;18.76;99259.84;5031535;28;20037;-84
2021/11/16 00:06:08;;;;;;;11.68;7.28;;;;;;;26.33;19.33;99260.13;5032643;28;20033;-84
2021/11/16 00:08:34;;;;;;;12.85;7.22;;;;;;;25.86;19.76;99261.03;5030696;28;20046;-84
2021/11/16 00:11:00;;;;;;;13.65;7.30;;;;;;;25.98;19.54;99246.44;5035539;28;20030;-84
2021/11/16 00:13:26;;;;;;;12.90;7.38;;;;;;;26.05;19.38;99249.97;5030923;28;20037;-84
2021/11/16 00:15:54;;;;;;;12.57;7.15;;;;;;;26.19;19.21;99245.41;5032272;28;20033;-84
2021/11/16 00:18:26;;;;;;;12.20;7.03;;;;;;;26.40;18.85;99250.78;5026258;28;20739;-84
2021/11/16 00:20:52;;;;;;;14.68;6.90;;;;;;;26.35;18.79;99246.41;5031906;28;20098;-84
2021/11/16 00:23:22;;;;;;;12.45;7.05;;;;;;;26.28;18.80;99246.50;5031947;28;20027;-84
2021/11/16 00:25:52;;;;;;;13.52;6.55;;;;;;;26.23;18.79;99247.00;5026106;28;20029;-84
2021/11/16 00:28:20;;;;;;;14.15;7.07;;;;;;;26.27;18.67;99250.56;5032800;28;20029;-84
2021/11/16 00:30:46;;;;;;;14.00;7.18;;;;;;;26.28;18.37;99240.88;5031300;28;20048;-84
2021/11/16 00:33:13;;;;;;;16.42;8.43;;;;;;;26.14;18.70;99241.03;5031666;28;20036;-84
2021/11/16 00:35:40;;;;;;;16.90;8.52;;;;;;;26.04;18.53;99241.94;5032490;28;20033;-84
2021/11/16 00:38:09;;;;;;;17.02;7.90;;;;;;;25.99;18.35;99242.41;5033426;28;20095;-84
2021/11/16 00:40:37;;;;;;;18.63;8.60;;;;;;;26.00;18.17;99232.72;5027241;28;20034;-84
2021/11/16 00:43:06;;;;;;;19.60;8.13;;;;;;;25.58;18.66;99242.41;5033467;28;20126;-84
2021/11/16 00:45:34;;;;;;;16.77;8.40;;;;;;;25.40;18.77;99247.38;5031198;28;20033;-84
2021/11/16 00:48:00;;;;;;;14.98;7.75;;;;;;;25.40;18.42;99245.38;5033534;28;20040;-84
2021/11/16 00:50:27;;;;;;;15.05;8.00;;;;;;;25.50;18.69;99254.16;5022236;28;20041;-84
2021/11/16 00:52:53;;;;;;;15.05;7.85;;;;;;;25.52;19.01;99246.91;5032168;28;20033;-84
2021/11/16 00:55:19;;;;;;;12.63;6.38;;;;;;;25.15;18.53;99250.41;5028718;28;20033;-84
2021/11/16 00:57:45;;;;;;;14.40;7.20;;;;;;;24.82;19.38;99247.44;5033025;28;20025;-84
2021/11/16 01:00:15;;;;;;;12.98;7.53;;;;;;;24.91;19.43;99237.34;5032275;28;20056;-84
2021/11/16 01:02:41;;;;;;;14.70;6.85;;;;;;;25.01;18.94;99239.28;5032203;28;20029;-84
2021/11/16 01:05:08;;;;;;;12.50;6.10;;;;;;;24.98;18.97;99250.53;5034266;28;20066;-84
2021/11/16 01:07:34;;;;;;;12.00;6.53;;;;;;;25.00;19.14;99248.91;5027067;28;20053;-84
2021/11/16 01:10:00;;;;;;;13.98;7.03;;;;;;;24.91;18.49;99250.56;5031069;28;20424;-84
2021/11/16 01:12:27;;;;;;;13.43;7.13;;;;;;;24.89;18.53;99255.81;5032386;28;20485;-85
2021/11/16 01:14:57;;;;;;;16.27;7.28;;;;;;;25.02;18.46;99263.34;5030914;28;20057;-85
2021/11/16 01:17:23;;;;;;;14.32;6.13;;;;;;;25.07;18.69;99260.09;5032208;28;20079;-85
2021/11/16 01:19:49;;;;;;;13.73;6.53;;;;;;;25.12;18.20;99265.28;5033943;28;20423;-85
2021/11/16 01:22:16;;;;;;;12.95;6.80;;;;;;;25.14;18.54;99262.84;5032896;28;20563;-85
2021/11/16 01:24:43;;;;;;;14.07;6.95;;;;;;;25.14;18.27;99262.84;5032637;28;20041;-85
2021/11/16 01:27:12;;;;;;;13.20;7.28;;;;;;;25.01;17.85;99267.38;5030889;28;20049;-85
2021/11/16 01:29:40;;;;;;;11.57;6.55;;;;;;;24.71;18.28;99267.13;5026631;28;20038;-85
2021/11/16 01:32:14;;;;;;;11.10;6.35;;;;;;;24.57;18.24;99270.84;5029046;28;20072;-86
2021/11/16 01:34:46;;;;;;;10.95;6.05;;;;;;;24.55;18.18;99273.22;5033062;28;20063;-85
2021/11/16 01:37:14;;;;;;;12.98;6.10;;;;;;;24.63;18.21;99269.19;5023484;28;20037;-85
2021/11/16 01:39:40;;;;;;;11.32;6.47;;;;;;;24.64;18.47;99264.38;5031267;28;20036;-85
2021/11/16 01:42:07;;;;;;;16.08;7.00;;;;;;;24.40;18.30;99266.09;5030863;28;20047;-85
2021/11/16 01:44:33;;;;;;;14.20;7.35;;;;;;;24.45;18.41;99265.66;5025452;28;21874;-86
2021/11/16 01:46:59;;;;;;;15.35;6.88;;;;;;;24.14;18.65;99274.19;5031448;28;20040;-85
2021/11/16 01:49:25;;;;;;;14.30;6.90;;;;;;;23.86;19.19;99275.84;5029924;28;20385;-85
2021/11/16 01:51:52;;;;;;;12.90;6.22;;;;;;;23.79;19.13;99261.84;5029654;28;20418;-86
2021/11/16 01:54:18;;;;;;;10.18;5.88;;;;;;;24.04;18.93;99275.78;5030917;28;20033;-84
2021/11/16 01:56:45;;;;;;;12.75;6.72;;;;;;;24.37;18.80;99264.09;5032638;28;20034;-85
2021/11/16 01:59:13;;;;;;;17.60;8.13;;;;;;;24.16;18.79;99271.78;5031784;28;20545;-85
2021/11/16 02:01:41;;;;;;;14.73;7.07;;;;;;;24.24;18.25;99262.16;5031861;28;20033;-84
2021/11/16 02:04:08;;;;;;;12.32;6.13;;;;;;;24.20;18.47;99272.59;5030356;28;20049;-84
2021/11/16 02:06:40;;;;;;;15.02;6.75;;;;;;;24.10;18.46;99273.41;5025891;28;20021;-84
2021/11/16 02:09:09;;;;;;;14.48;6.50;;;;;;;24.17;18.43;99268.59;5029767;28;20091;-83
2021/11/16 02:11:36;;;;;;;11.73;6.68;;;;;;;24.11;18.80;99278.63;5033354;28;20025;-83
2021/11/16 02:14:06;;;;;;;15.90;6.97;;;;;;;24.01;19.28;99277.41;5025256;28;20390;-83
2021/11/16 02:16:33;;;;;;;17.02;8.15;;;;;;;24.07;18.97;99274.22;5031483;28;21982;-83
2021/11/16 02:19:00;;;;;;;14.13;6.75;;;;;;;24.33;18.97;99273.72;5030754;28;20029;-83
2021/11/16 02:21:26;;;;;;;21.38;9.43;;;;;;;24.48;18.70;99275.28;5028136;28;20045;-83
2021/11/16 02:23:52;;;;;;;22.98;9.25;;;;;;;24.24;19.09;99281.78;5031621;28;20405;-84
2021/11/16 02:26:18;;;;;;;16.23;8.50;;;;;;;24.20;19.33;99270.56;5032514;28;20034;-84
2021/11/16 02:28:46;;;;;;;15.73;8.57;;;;;;;24.41;19.21;99270.47;5031510;28;20041;-83
2021/11/16 02:31:15;;;;;;;12.82;6.45;;;;;;;24.62;19.29;99267.56;5031598;28;20097;-83
2021/11/16 02:33:42;;;;;;;15.70;9.05;;;;;;;24.88;18.66;99269.06;5031650;28;20034;-83
2021/11/16 02:36:08;;;;;;;17.73;9.20;;;;;;;24.71;18.65;99265.09;5032538;28;20037;-83
2021/11/16 02:38:36;;;;;;;14.23;6.47;;;;;;;24.88;18.09;99257.81;5025643;28;20061;-85
2021/11/16 02:41:03;;;;;;;13.70;7.30;;;;;;;25.11;17.99;99262.91;5026412;28;20072;-85
2021/11/16 02:43:30;;;;;;;15.43;7.32;;;;;;;25.27;17.90;99266.78;5025835;28;20034;-85
2021/11/16 02:45:57;;;;;;;11.43;5.85;;;;;;;25.40;17.77;99267.88;5027040;28;20025;-85
2021/11/16 02:48:25;;;;;;;20.08;9.25;;;;;;;25.31;17.75;99259.13;5031052;28;20041;-85
2021/11/16 02:50:57;;;;;;;16.67;8.18;;;;;;;24.49;18.32;99263.63;5023670;28;20056;-85
2021/11/16 02:53:24;;;;;;;13.77;7.15;;;;;;;24.28;18.88;99262.94;5027814;28;20064;-85
2021/11/16 02:55:50;;;;;;;15.32;7.90;;;;;;;24.06;18.59;99256.59;5030863;28;20022;-85
2021/11/16 02:58:19;;;;;;;18.30;8.43;;;;;;;23.66;19.49;99251.47;5030311;28;20025;-85
2021/11/16 03:00:49;;;;;;;14.90;6.88;;;;;;;24.04;19.22;99262.56;5027870;28;20395;-85
2021/11/16 03:03:20;;;;;;;15.32;7.53;;;;;;;24.28;19.16;99249.69;5025171;28;20587;-85
2021/11/16 03:05:46;;;;;;;15.53;7.70;;;;;;;24.71;18.43;99245.44;5031673;28;20505;-85
2021/11/16 03:08:23;;;;;;;16.45;8.15;;;;;;;25.02;18.52;99240.88;5030890;28;20474;-86
2021/11/16 03:10:51;;;;;;;15.82;7.78;;;;;;;24.92;18.90;99241.75;5027795;28;20029;-84
2021/11/16 03:13:18;;;;;;;14.80;7.25;;;;;;;25.25;18.54;99245.94;5031132;28;20496;-83
2021/11/16 03:15:45;;;;;;;17.23;7.90;;;;;;;25.58;18.17;99241.66;5028633;28;20041;-83
2021/11/16 03:18:11;;;;;;;16.92;8.32;;;;;;;25.77;18.14;99241.03;5028701;28;20517;-84
2021/11/16 03:20:38;;;;;;;13.65;7.35;;;;;;;25.51;18.39;99239.69;5028023;28;20053;-84
2021/11/16 03:25:42;;;;;;;14.88;7.00;;;;;;;25.82;18.35;99232.13;5031873;28;20037;-84
2021/11/16 03:28:10;;;;;;;16.58;8.07;;;;;;;26.03;18.31;99231.91;5030194;28;20029;-84
2021/11/16 03:30:37;;;;;;;15.60;8.23;;;;;;;26.04;17.86;99234.28;5030531;28;20037;-84
2021/11/16 03:33:04;;;;;;;14.70;8.35;;;;;;;25.54;18.56;99240.84;5028017;28;20033;-83
2021/11/16 03:35:31;;;;;;;13.88;8.35;;;;;;;25.23;18.98;99243.50;5026509;28;20089;-83
2021/11/16 03:37:59;;;;;;;13.27;7.05;;;;;;;25.50;18.84;99242.91;5030994;28;20116;-83
2021/11/16 03:40:27;;;;;;;15.73;7.75;;;;;;;25.58;18.49;99233.22;5023318;28;20022;-83
2021/11/16 03:42:54;;;;;;;15.50;7.97;;;;;;;25.84;18.32;99233.31;5031580;28;20124;-83
2021/11/16 03:45:24;;;;;;;14.05;7.13;;;;;;;26.05;17.97;99221.81;5030251;28;20029;-83
2021/11/16 03:47:50;;;;;;;15.68;7.38;;;;;;;26.18;18.00;99222.13;5030603;28;20112;-83
2021/11/16 03:50:21;;;;;;;12.82;6.72;;;;;;;26.23;17.98;99218.03;5027830;28;20404;-83
2021/11/16 03:52:53;;;;;;;14.80;8.05;;;;;;;25.83;18.35;99219.69;5027107;28;20037;-84
2021/11/16 03:55:20;;;;;;;15.52;7.60;;;;;;;25.38;18.71;99225.31;5027267;28;20109;-83
2021/11/16 03:57:48;;;;;;;15.40;7.55;;;;;;;25.33;18.87;99222.16;5029384;28;20036;-83
2021/11/16 04:00:18;;;;;;;15.57;8.18;;;;;;;25.60;18.71;99222.34;5030191;28;20053;-83
2021/11/16 04:02:45;;;;;;;14.25;8.25;;;;;;;25.79;18.55;99219.69;5029508;28;20042;-85
2021/11/16 04:05:12;;;;;;;14.57;8.77;;;;;;;25.39;19.05;99221.28;5030890;28;20036;-85
2021/11/16 04:07:40;;;;;;;15.45;7.78;;;;;;;25.18;19.20;99227.09;5030407;28;20029;-85
2021/11/16 04:10:13;;;;;;;12.68;7.07;;;;;;;25.21;19.03;99220.63;5027271;28;20021;-86
2021/11/16 04:12:41;;;;;;;13.85;7.53;;;;;;;25.68;18.90;99221.03;5027693;28;20079;-86
2021/11/16 04:15:08;;;;;;;15.38;7.88;;;;;;;25.98;18.42;99223.91;5027835;28;20026;-86
2021/11/16 04:17:36;;;;;;;13.93;7.78;;;;;;;25.97;18.42;99216.72;5030859;28;20025;-86
2021/11/16 04:20:04;;;;;;;12.85;6.88;;;;;;;26.00;18.53;99208.19;5028991;28;20053;-85
2021/11/16 04:22:30;;;;;;;11.27;7.05;;;;;;;25.96;18.34;99204.66;5024539;28;20044;-85
2021/11/16 04:24:56;;;;;;;15.35;8.73;;;;;;;25.74;18.68;99211.72;5025193;28;20217;-85
2021/11/16 04:27:23;;;;;;;14.13;7.90;;;;;;;25.23;19.24;99214.59;5020616;28;21751;-85
2021/11/16 04:29:49;;;;;;;13.52;7.07;;;;;;;24.99;19.49;99215.63;5032788;28;20021;-85
2021/11/16 04:32:15;;;;;;;13.35;7.20;;;;;;;25.19;19.36;99223.06;5030907;28;20037;-84
2021/11/16 04:34:41;;;;;;;11.88;6.97;;;;;;;25.78;18.86;99208.88;5029525;28;20400;-84
2021/11/16 04:37:07;;;;;;;13.95;6.75;;;;;;;26.06;18.37;99205.75;5030030;28;20052;-84
2021/11/16 04:39:33;;;;;;;14.35;7.25;;;;;;;26.04;18.48;99214.59;5030936;28;20042;-84
2021/11/16 04:41:59;;;;;;;12.32;7.22;;;;;;;25.81;18.52;99217.25;5026411;28;20054;-84
2021/11/16 04:44:25;;;;;;;13.43;7.90;;;;;;;25.33;19.04;99222.94;5031283;28;20417;-84
2021/11/16 04:46:52;;;;;;;14.45;7.47;;;;;;;25.15;19.45;99218.69;5031076;28;20022;-84
2021/11/16 04:49:26;;;;;;;13.02;7.30;;;;;;;25.16;19.36;99231.53;5030657;28;20033;-84
2021/11/16 04:52:02;;;;;;;11.48;7.35;;;;;;;25.37;19.09;99240.56;5031958;28;20030;-84
2021/11/16 04:54:39;;;;;;;13.52;7.60;;;;;;;25.33;19.09;99239.00;5028417;28;20049;-84
2021/11/16 05:02:35;;;;;;;10.23;6.25;;;;;;;24.94;19.95;99235.72;5029495;28;20088;-84
2021/11/16 05:05:08;;;;;;;17.35;8.05;;;;;;;25.38;19.30;99232.94;5029908;28;20117;-84
2021/11/16 05:07:36;;;;;;;14.20;8.00;;;;;;;25.27;19.22;99238.69;5033035;28;20493;-84
2021/11/16 05:10:06;;;;;;;13.55;7.10;;;;;;;25.32;19.29;99243.84;5022735;28;20034;-84
2021/11/16 05:12:32;;;;;;;13.55;7.70;;;;;;;25.69;19.12;99237.50;5027415;28;20057;-84
2021/11/16 05:15:02;;;;;;;13.68;7.05;;;;;;;25.52;19.05;99243.28;5027342;28;20551;-84
2021/11/16 05:17:28;;;;;;;12.17;6.77;;;;;;;25.69;19.00;99237.50;5029853;28;20029;-84
2021/11/16 05:19:55;;;;;;;13.95;7.35;;;;;;;25.92;18.69;99242.50;5026700;28;20034;-83
2021/11/16 05:22:22;;;;;;;14.75;8.55;;;;;;;25.64;19.14;99242.78;5026411;28;20046;-83
2021/11/16 05:24:49;;;;;;;17.42;9.38;;;;;;;25.40;19.19;99242.56;5026534;28;20065;-83
2021/11/16 05:27:15;;;;;;;17.25;9.05;;;;;;;25.19;19.44;99233.50;5025940;28;20378;-83
2021/11/16 05:29:43;;;;;;;15.68;8.30;;;;;;;24.89;19.66;99236.16;5028565;28;20419;-83
2021/11/16 05:32:09;;;;;;;13.77;7.07;;;;;;;25.03;19.87;99247.28;5026840;28;20060;-82
2021/11/16 05:34:35;;;;;;;13.80;7.90;;;;;;;25.39;19.37;99240.97;5021465;28;20080;-85
2021/11/16 05:37:02;;;;;;;12.98;7.68;;;;;;;25.76;18.97;99239.44;5028705;28;20084;-82
2021/11/16 05:39:28;;;;;;;14.15;8.25;;;;;;;25.80;18.93;99243.00;5023191;28;20041;-82
2021/11/16 05:41:54;;;;;;;15.23;7.57;;;;;;;25.81;18.95;99241.81;5027630;28;20037;-83
2021/11/16 05:44:21;;;;;;;11.40;6.07;;;;;;;26.06;18.75;99239.50;5025971;28;20055;-85
2021/11/16 05:46:47;;;;;;;12.10;6.47;;;;;;;26.24;18.35;99240.13;5031741;28;20025;-85
2021/11/16 05:49:13;;;;;;;11.60;6.55;;;;;;;26.38;18.39;99233.50;5032111;28;20038;-85
2021/11/16 05:51:39;;;;;;;11.35;6.50;;;;;;;26.18;18.66;99236.19;5022052;28;20025;-85
2021/11/16 05:54:06;;;;;;;11.13;6.07;;;;;;;25.91;19.06;99236.06;5027281;28;20041;-84
2021/11/16 05:56:35;;;;;;;13.90;7.43;;;;;;;26.03;18.87;99231.91;5027647;28;20046;-84
2021/11/16 05:59:02;;;;;;;13.30;8.15;;;;;;;25.74;19.12;99245.47;5029061;28;20064;-84
2021/11/16 06:01:31;;;;;;;10.30;7.22;;;;;;;25.75;19.11;99243.47;5022278;28;20053;-84
2021/11/16 06:03:58;;;;;;;13.30;6.70;;;;;;;25.95;18.78;99245.25;5013555;28;20029;-85
2021/11/16 06:06:27;;;;;;;11.38;6.22;;;;;;;26.19;18.55;99254.66;5012306;28;20033;-84
2021/11/16 06:08:54;;;;;;;12.25;6.63;;;;;;;26.38;18.32;99239.13;5010437;28;20037;-84
2021/11/16 06:11:22;;;;;;;14.80;7.53;;;;;;;26.54;18.18;99244.97;5010114;28;20034;-84
2021/11/16 06:13:50;;;;;;;11.68;6.70;;;;;;;26.73;18.05;99253.56;5014273;28;20033;-83
2021/11/16 06:16:17;;;;;;;40.00;28.40;;;;;;;26.94;17.93;99258.09;5010616;28;20532;-83
2021/11/16 06:18:52;;;;;;;33.97;25.85;;;;;;;27.08;17.82;99255.06;5011133;28;20041;-82
2021/11/16 06:21:19;;;;;;;27.65;22.05;;;;;;;27.23;17.67;99244.38;5009326;28;20701;-83
2021/11/16 06:23:46;;;;;;;20.55;13.98;;;;;;;27.30;17.83;99252.72;5011989;28;20123;-82
2021/11/16 06:26:12;;;;;;;15.00;10.05;;;;;;;27.34;17.71;99254.25;5011918;28;20125;-84
2021/11/16 06:28:39;;;;;;;14.30;8.80;;;;;;;27.39;17.49;99261.47;5008528;28;21464;-83
2021/11/16 06:31:05;;;;;;;15.77;9.07;;;;;;;27.40;17.75;99260.22;5008634;28;20032;-84
2021/11/16 06:33:31;;;;;;;18.90;10.73;;;;;;;27.36;17.77;99263.06;5011924;28;20037;-83
2021/11/16 06:36:01;;;;;;;18.98;10.95;;;;;;;27.25;17.37;99261.66;5008094;28;20041;-84
2021/11/16 06:38:27;;;;;;;18.45;9.70;;;;;;;27.00;18.06;99261.25;5010665;28;20041;-84
2021/11/16 06:40:53;;;;;;;10.13;6.32;;;;;;;26.88;17.89;99268.28;5020390;28;20040;-83
2021/11/16 06:43:20;;;;;;;13.23;7.30;;;;;;;25.77;19.31;99271.97;5022651;28;20520;-83
2021/11/16 06:45:50;;;;;;;12.10;7.20;;;;;;;25.61;19.42;99271.72;5031659;28;20028;-84
2021/11/16 06:48:16;;;;;;;12.82;6.97;;;;;;;25.76;19.33;99278.84;5029882;28;20040;-86
2021/11/16 06:50:42;;;;;;;11.07;5.93;;;;;;;26.12;18.99;99279.28;5024254;28;20033;-86
2021/11/16 06:53:08;;;;;;;10.43;6.13;;;;;;;26.58;18.45;99285.94;5029865;28;20037;-86
2021/11/16 06:55:34;;;;;;;11.73;6.93;;;;;;;26.78;18.12;99279.69;5027942;28;20030;-86
2021/11/16 06:58:00;;;;;;;13.25;7.25;;;;;;;25.91;19.04;99283.91;5020626;28;20116;-86
2021/11/16 07:00:26;;;;;;;12.73;7.65;;;;;;;24.56;20.78;99290.88;5033686;28;20033;-86
2021/11/16 07:02:58;;;;;;;11.77;6.60;;;;;;;24.33;20.98;99291.38;5032758;28;20041;-86
2021/11/16 07:05:26;;;;;;;9.88;6.57;;;;;;;24.88;20.69;99282.31;5031946;28;20445;-84
2021/11/16 07:07:52;;;;;;;11.15;6.75;;;;;;;25.52;20.18;99285.47;5033107;28;20127;-84
2021/11/16 07:10:20;;;;;;;10.40;6.28;;;;;;;25.82;19.70;99280.78;5027904;28;20029;-84
2021/11/16 07:12:47;;;;;;;8.73;5.70;;;;;;;26.10;19.53;99282.53;5018046;28;20099;-84
2021/11/16 07:15:15;;;;;;;10.32;6.32;;;;;;;26.52;18.74;99289.66;5032056;28;20026;-84
2021/11/16 07:17:41;;;;;;;12.48;6.43;;;;;;;26.71;18.66;99287.00;5032109;28;20038;-84
2021/11/16 07:20:10;;;;;;;16.05;7.07;;;;;;;26.94;18.53;99285.50;5032226;28;20044;-84
2021/11/16 07:22:37;;;;;;;13.43;6.78;;;;;;;26.98;18.45;99298.31;5032752;28;20036;-84
2021/11/16 07:25:13;;;;;;;14.95;8.15;;;;;;;26.88;18.65;99287.19;5031135;28;20037;-84
2021/11/16 07:27:44;;;;;;;11.45;7.20;;;;;;;26.99;18.27;99285.81;5030758;28;20022;-84
2021/11/16 07:30:13;;;;;;;13.68;7.47;;;;;;;27.07;18.46;99284.47;5023813;28;20367;-84
2021/11/16 07:32:49;;;;;;;10.35;6.03;;;;;;;27.23;18.23;99281.84;5026144;28;20025;-84
2021/11/16 07:35:17;;;;;;;11.80;6.13;;;;;;;27.26;18.22;99288.63;5031103;28;20033;-84
2021/11/16 07:37:45;;;;;;;12.48;7.70;;;;;;;27.01;18.38;99288.19;5031456;28;20034;-84
2021/11/16 07:40:18;;;;;;;11.18;6.50;;;;;;;27.10;18.39;99288.47;5031921;28;20559;-84
2021/11/16 07:42:53;;;;;;;11.77;7.43;;;;;;;27.18;18.54;99293.59;5032147;28;20034;-84
2021/11/16 07:45:36;;;;;;;14.00;7.53;;;;;;;27.20;18.17;99291.13;5031576;28;20512;-84
2021/11/16 07:48:06;;;;;;;12.40;6.60;;;;;;;27.13;18.54;99296.09;5028321;28;20048;-87
2021/11/16 07:50:32;;;;;;;12.50;6.68;;;;;;;27.22;18.58;99291.50;5031700;28;20038;-86
2021/11/16 07:53:18;;;;;;;11.30;6.57;;;;;;;26.96;18.70;99291.50;5030280;28;20052;-84
2021/11/16 07:55:59;;;;;;;11.45;6.72;;;;;;;26.67;18.91;99297.53;5032415;28;20030;-84
2021/11/16 07:58:31;;;;;;;14.68;7.38;;;;;;;26.71;18.87;99294.63;5030779;28;20498;-84
2021/11/16 08:01:01;;;;;;;11.07;6.72;;;;;;;26.91;18.75;99294.81;5032547;28;20109;-84
2021/11/16 08:03:37;;;;;;;13.70;6.95;;;;;;;27.09;18.61;99295.34;5030655;28;20437;-84
2021/11/16 08:14:01;;;;;;;13.30;7.05;;;;;;;27.00;18.90;99295.09;5030650;28;20041;-84
2021/11/16 08:16:28;;;;;;;15.30;8.23;;;;;;;27.23;18.29;99292.31;5036805;28;20398;-84
2021/11/16 08:19:06;;;;;;;12.48;7.30;;;;;;;26.83;19.07;99291.28;5035034;28;20036;-84
2021/11/16 08:21:34;;;;;;;16.95;8.30;;;;;;;26.54;19.41;99301.28;5032621;28;20123;-84
2021/11/16 08:24:04;;;;;;;14.05;7.93;;;;;;;26.50;19.33;99297.72;5034758;28;20044;-84
2021/11/16 08:26:47;;;;;;;15.35;8.52;;;;;;;26.43;19.24;99298.63;5036280;28;20466;-84
2021/11/16 08:29:17;;;;;;;15.15;8.32;;;;;;;26.13;19.59;99283.69;5034469;28;20043;-84
2021/11/16 08:31:47;;;;;;;12.52;7.03;;;;;;;26.26;19.56;99287.56;5035014;28;20029;-84
2021/11/16 08:34:14;;;;;;;12.50;7.43;;;;;;;26.73;19.28;99297.81;5023002;28;20038;-84
2021/11/16 08:36:48;;;;;;;13.35;7.55;;;;;;;27.08;19.06;99290.91;5033463;28;20025;-84
2021/11/16 08:39:17;;;;;;;17.55;9.00;;;;;;;27.15;18.75;99280.34;5030849;28;20033;-84
2021/11/16 08:41:43;;;;;;;12.55;7.22;;;;;;;26.89;19.12;99285.97;5033855;28;20040;-84
2021/11/16 08:44:16;;;;;;;15.35;8.10;;;;;;;27.00;18.96;99292.25;5032437;28;20034;-84
2021/11/16 08:46:45;;;;;;;16.35;8.18;;;;;;;26.88;18.91;99290.00;5035100;28;20022;-84
2021/11/16 08:49:32;;;;;;;13.88;7.93;;;;;;;26.54;19.34;99284.41;5033718;28;20116;-84
2021/11/16 08:52:02;;;;;;;15.02;7.90;;;;;;;26.80;19.19;99282.88;5035847;28;20045;-84
2021/11/16 08:54:35;;;;;;;16.15;7.93;;;;;;;26.73;19.24;99283.75;5030450;28;20029;-84
2021/11/16 08:57:04;;;;;;;18.20;9.07;;;;;;;26.81;19.42;99276.03;5034262;28;20083;-84
2021/11/16 08:59:35;;;;;;;16.10;8.48;;;;;;;26.79;19.15;99275.66;5035021;28;20041;-84
2021/11/16 09:02:03;;;;;;;;;;;;;;;26.80;19.36;99277.22;5033500;28;20038;-84
2021/11/16 09:04:32;;;;;;;15.02;8.18;;;;;;;27.27;18.92;99274.09;5035253;28;19940;-84
2021/11/16 09:06:59;;;;;;;17.15;9.15;;;;;;;27.50;18.65;99279.00;5035004;28;20041;-84
2021/11/16 09:09:26;;;;;;;17.15;8.55;;;;;;;27.24;18.74;99274.94;5032042;28;20029;-84
2021/11/16 09:11:59;;;;;;;19.05;10.13;;;;;;;25.38;20.39;99277.94;5035619;28;20038;-84
2021/11/16 09:14:26;;;;;;;20.83;9.93;;;;;;;24.50;21.46;99281.28;5029214;28;20034;-86
2021/11/16 09:16:53;;;;;;;15.73;8.27;;;;;;;24.11;22.49;99281.41;5033057;28;20040;-86
2021/11/16 09:19:32;;;;;;;17.13;8.25;;;;;;;25.04;21.65;99277.00;5035341;28;20083;-87
2021/11/16 09:22:00;;;;;;;14.77;8.18;;;;;;;25.87;20.76;99268.25;5032335;28;20049;-86
2021/11/16 09:24:34;;;;;;;18.55;10.18;;;;;;;26.37;19.93;99271.34;5033601;28;20516;-87
2021/11/16 09:29:31;;;;;;;17.45;9.70;;;;;;;26.15;20.30;99264.38;5028112;28;20448;-86
2021/11/16 09:32:01;;;;;;;18.23;9.75;;;;;;;26.23;19.92;99257.44;5034950;28;20042;-87
2021/11/16 09:34:33;;;;;;;19.05;10.10;;;;;;;26.15;20.26;99259.53;5023896;28;20091;-87
2021/11/16 09:37:00;;;;;;;22.90;10.10;;;;;;;25.80;20.58;99262.72;5030308;28;20026;-87
2021/11/16 09:39:38;;;;;;;25.73;12.68;;;;;;;25.26;20.95;99256.75;5033593;28;20070;-87
2021/11/16 09:42:09;;;;;;;19.85;9.82;;;;;;;25.07;21.40;99248.06;5034437;28;20418;-86
2021/11/16 09:44:43;;;;;;;17.33;9.50;;;;;;;25.27;21.68;99247.13;5033162;28;20593;-87
2021/11/16 09:47:20;;;;;;;20.60;11.18;;;;;;;25.43;20.97;99246.56;5029586;28;20042;-87
2021/11/16 09:49:58;;;;;;;18.98;9.88;;;;;;;26.24;20.83;99251.38;5033811;28;20036;-86
2021/11/16 09:52:34;;;;;;;14.40;8.45;;;;;;;26.67;19.93;99243.19;5034355;28;20033;-86
2021/11/16 09:55:18;;;;;;;20.85;10.90;;;;;;;26.52;20.07;99253.84;5032452;28;20068;-87
2021/11/16 09:57:47;;;;;;;21.48;10.38;;;;;;;26.22;20.39;99251.00;5024657;28;20557;-87
2021/11/16 10:00:26;;;;;;;18.63;10.32;;;;;;;26.37;20.44;99241.16;5034299;28;20049;-87
2021/11/16 10:03:02;;;;;;;16.05;9.45;;;;;;;26.60;19.92;99243.28;5028271;28;20075;-87
2021/11/16 10:05:30;;;;;;;20.70;10.68;;;;;;;25.91;20.58;99249.31;5034246;28;20036;-84
2021/11/16 10:08:02;;;;;;;21.02;11.27;;;;;;;25.50;20.93;99246.53;5027894;28;20037;-84
2021/11/16 10:10:32;;;;;;;24.70;11.85;;;;;;;26.09;20.93;99230.25;5021560;28;20034;-86
2021/11/16 10:13:07;;;;;;;24.33;10.77;;;;;;;26.27;20.26;99239.28;5031825;28;20022;-87
2021/11/16 10:15:36;;;;;;;20.08;10.25;;;;;;;26.68;20.35;99228.66;5045532;28;20060;-87
2021/11/16 10:18:03;;;;;;;19.23;10.15;;;;;;;26.87;20.20;99230.03;5030657;28;20040;-86
2021/11/16 10:20:33;;;;;;;18.38;9.43;;;;;;;26.80;19.92;99232.16;5031901;28;20038;-87
2021/11/16 10:23:02;;;;;;;21.00;10.05;;;;;;;26.85;19.92;99223.22;5031658;28;20037;-87
2021/11/16 10:25:33;;;;;;;22.63;10.43;;;;;;;26.92;19.79;99223.13;5029541;28;20034;-87
2021/11/16 10:28:07;;;;;;;17.90;9.30;;;;;;;27.02;19.98;99217.31;5022898;28;20399;-87
2021/11/16 10:30:34;;;;;;;23.10;12.48;;;;;;;26.47;20.06;99214.88;5027003;28;20030;-85
2021/11/16 10:33:15;;;;;;;21.13;9.95;;;;;;;25.13;21.31;99215.50;5033642;28;20065;-85
2021/11/16 10:35:50;;;;;;;19.70;9.48;;;;;;;25.41;21.85;99212.44;5030320;28;20032;-85
2021/11/16 10:38:25;;;;;;;20.77;10.60;;;;;;;25.67;21.22;99213.81;5027185;28;20038;-85
2021/11/16 10:40:53;;;;;;;24.20;12.43;;;;;;;25.96;20.91;99213.09;5034150;28;20025;-85
2021/11/16 10:43:19;;;;;;;22.33;10.73;;;;;;;26.13;20.82;99208.50;5030573;28;20029;-85
2021/11/16 10:45:48;;;;;;;21.42;9.90;;;;;;;26.52;20.66;99208.78;5032354;28;20037;-85
2021/11/16 10:48:17;;;;;;;21.88;10.40;;;;;;;26.61;20.44;99208.25;5031138;28;20041;-85
2021/11/16 10:50:47;;;;;;;23.67;12.20;;;;;;;26.62;20.26;99207.03;5014036;28;20042;-85
2021/11/16 10:53:32;;;;;;;21.08;10.68;;;;;;;26.84;19.96;99207.56;5029479;28;20053;-85
2021/11/16 10:56:00;;;;;;;16.88;9.57;;;;;;;27.15;19.47;99204.22;5031060;28;20036;-85
2021/11/16 10:58:37;;;;;;;25.58;12.88;;;;;;;26.34;20.44;99196.97;5031589;28;20116;-85
2021/11/16 11:01:08;;;;;;;19.48;10.73;;;;;;;26.51;20.43;99195.13;5029432;28;20040;-85
2021/11/16 11:03:45;;;;;;;21.95;11.10;;;;;;;26.86;19.67;99202.28;5029442;28;20117;-85
2021/11/16 11:06:20;;;;;;;25.67;14.35;;;;;;;25.14;21.41;99203.84;5032265;28;20036;-85
2021/11/16 11:08:54;;;;;;;19.73;10.90;;;;;;;25.84;21.10;99196.75;5025682;28;20381;-85
2021/11/16 11:11:41;;;;;;;19.85;10.98;;;;;;;26.55;20.35;99193.84;5032136;28;20025;-85
2021/11/16 11:14:18;;;;;;;26.15;12.18;;;;;;;26.22;20.55;99191.88;5030606;28;20046;-85
2021/11/16 11:16:56;;;;;;;24.98;13.02;;;;;;;26.03;20.57;99195.31;5015586;28;20120;-85
2021/11/16 11:19:30;;;;;;;22.35;12.43;;;;;;;26.17;20.33;99189.53;5031782;28;20029;-85
2021/11/16 11:22:28;;;;;;;23.17;11.10;;;;;;;26.29;20.46;99183.34;5032145;28;20061;-85
2021/11/16 11:25:10;;;;;;;21.70;10.98;;;;;;;25.62;21.26;99181.31;5032130;28;20049;-85
2021/11/16 11:27:44;;;;;;;22.60;12.15;;;;;;;25.27;21.38;99173.22;5028238;28;20025;-85
2021/11/16 11:30:18;;;;;;;21.35;11.75;;;;;;;25.91;21.30;99181.78;5032539;28;20092;-85
2021/11/16 11:32:48;;;;;;;26.63;14.77;;;;;;;25.55;21.36;99172.97;5032868;28;20037;-85
2021/11/16 11:35:17;;;;;;;20.75;11.18;;;;;;;26.29;20.76;99169.28;5029309;28;20038;-85
2021/11/16 11:37:52;;;;;;;23.30;11.70;;;;;;;26.78;19.94;99158.50;5031536;28;20041;-84
2021/11/16 11:40:26;;;;;;;23.83;12.27;;;;;;;25.58;21.33;99163.66;5034326;28;20873;-85
2021/11/16 11:42:58;;;;;;;27.75;13.88;;;;;;;24.30;22.60;99159.47;5035818;28;20079;-85
2021/11/16 11:45:33;;;;;;;23.23;11.70;;;;;;;24.87;22.38;99171.16;5025663;28;20036;-85
2021/11/16 11:48:13;;;;;;;29.27;15.52;;;;;;;23.94;23.08;99170.06;5034979;28;20105;-85
2021/11/16 11:50:54;;;;;;;23.20;13.18;;;;;;;23.64;23.14;99167.72;5035887;28;20091;-85
2021/11/16 11:53:32;;;;;;;25.52;13.05;;;;;;;23.39;23.59;99161.38;5035972;28;20477;-85